Time;durP1;ratioP1;P1;durP2;ratioP2;P2;SDS_P1;SDS_P2;PMS_P1;PMS_P2;Temp;Humidity;BMP_temperature;BMP_pressure;BME280_temperature;BME280_humidity;BME280_pressure;Samples;Min_cycle;Max_cycle;Signal;HPM_P1;HPM_P2
2023/02/20 00:01:21;;;;;;;6.40;5.60;;;;;;;8.19;73.51;100626.00;5012202;28;20093;-77
2023/02/20 00:03:48;;;;;;;7.38;6.10;;;;;;;8.15;73.39;100616.53;4994668;28;20081;-78
2023/02/20 00:06:14;;;;;;;7.50;5.80;;;;;;;8.12;73.66;100614.03;5011822;28;20077;-77
2023/02/20 00:08:41;;;;;;;6.43;5.55;;;;;;;8.08;73.27;100607.19;5011786;28;20061;-78
2023/02/20 00:11:08;;;;;;;6.97;6.18;;;;;;;8.06;73.31;100607.22;5012091;28;20100;-77
2023/02/20 00:13:34;;;;;;;8.38;6.90;;;;;;;8.05;73.87;100612.50;5010680;28;20096;-77
2023/02/20 00:16:01;;;;;;;7.20;6.30;;;;;;;8.04;73.59;100606.41;5011532;28;20046;-77
2023/02/20 00:18:27;;;;;;;7.72;6.70;;;;;;;8.03;73.59;100596.81;4994921;28;20058;-78
2023/02/20 00:20:54;;;;;;;8.80;6.65;;;;;;;8.03;73.95;100590.72;4992334;28;20056;-78
2023/02/20 00:23:20;;;;;;;9.88;6.90;;;;;;;8.03;73.71;100593.34;4992309;28;20145;-77
2023/02/20 00:25:47;;;;;;;9.95;7.78;;;;;;;8.02;74.08;100583.75;4991678;28;20050;-77
2023/02/20 00:28:13;;;;;;;8.70;6.93;;;;;;;8.02;73.75;100578.53;4991837;28;20050;-77
2023/02/20 00:30:40;;;;;;;9.48;7.82;;;;;;;8.02;73.67;100578.53;4992054;28;20144;-78
2023/02/20 00:33:07;;;;;;;9.75;7.80;;;;;;;8.00;73.81;100573.31;4992037;28;20689;-77
2023/02/20 00:35:33;;;;;;;8.85;7.95;;;;;;;8.00;73.80;100582.97;4991701;28;20054;-77
2023/02/20 00:38:00;;;;;;;10.50;8.20;;;;;;;7.98;73.60;100574.28;4991673;28;20043;-77
2023/02/20 00:40:26;;;;;;;11.57;8.02;;;;;;;7.95;73.63;100562.13;4992005;28;20054;-77
2023/02/20 00:42:53;;;;;;;10.23;8.27;;;;;;;7.92;73.68;100560.47;4992049;28;20050;-79
2023/02/20 00:45:20;;;;;;;10.05;8.43;;;;;;;7.90;73.87;100562.31;4988152;28;20109;-77
2023/02/20 00:47:46;;;;;;;10.02;8.50;;;;;;;7.90;73.91;100550.94;4991708;28;20058;-77
2023/02/20 00:50:15;;;;;;;10.35;8.57;;;;;;;7.86;73.50;100560.69;4991819;28;20050;-77
2023/02/20 00:52:41;;;;;;;10.23;7.82;;;;;;;7.86;74.23;100554.56;4983519;28;20054;-77
2023/02/20 00:55:08;;;;;;;12.38;9.45;;;;;;;7.84;73.88;100544.13;4991442;28;20054;-77
2023/02/20 00:57:35;;;;;;;11.02;8.25;;;;;;;7.82;74.28;100546.81;4991318;28;20058;-76
2023/02/20 01:00:01;;;;;;;9.55;8.20;;;;;;;7.82;74.20;100544.19;4991595;28;20086;-77
2023/02/20 01:02:28;;;;;;;11.18;8.30;;;;;;;7.80;74.15;100548.63;4991557;28;20419;-77
2023/02/20 01:04:55;;;;;;;12.35;8.80;;;;;;;7.79;74.05;100544.31;4990384;28;20046;-78
2023/02/20 01:07:22;;;;;;;14.85;8.77;;;;;;;7.79;74.31;100533.81;4990523;28;20437;-78
2023/02/20 01:09:48;;;;;;;11.35;8.07;;;;;;;7.79;74.50;100546.94;4990659;28;20062;-77
2023/02/20 01:12:16;;;;;;;14.02;8.88;;;;;;;7.79;74.23;100520.72;4990703;28;20141;-77
2023/02/20 01:14:42;;;;;;;13.90;8.70;;;;;;;7.80;74.20;100511.06;4990402;28;20078;-79
2023/02/20 01:17:11;;;;;;;9.35;8.25;;;;;;;7.81;74.66;100502.28;4990003;28;20056;-76
2023/02/20 01:19:37;;;;;;;12.60;8.60;;;;;;;7.80;74.17;100509.31;4983080;28;20054;-78
2023/02/20 01:22:07;;;;;;;10.52;8.40;;;;;;;7.79;74.52;100515.47;4990533;28;20057;-77
2023/02/20 01:24:34;;;;;;;11.15;8.80;;;;;;;7.79;74.40;100514.59;4990516;28;20046;-77
2023/02/20 01:27:00;;;;;;;12.82;8.98;;;;;;;7.79;74.57;100511.97;4989685;28;20058;-78
2023/02/20 01:29:27;;;;;;;11.43;8.55;;;;;;;7.79;74.35;100504.13;4990809;28;20065;-76
2023/02/20 01:31:53;;;;;;;10.82;7.97;;;;;;;7.77;74.00;100500.69;4990459;28;20054;-78
2023/02/20 01:34:20;;;;;;;10.82;8.02;;;;;;;7.78;74.38;100497.19;4987111;28;20481;-77
2023/02/20 01:36:53;;;;;;;12.90;8.50;;;;;;;7.75;73.45;100492.03;4989556;28;20054;-76
2023/02/20 01:39:22;;;;;;;10.68;7.97;;;;;;;7.75;73.64;100489.41;4990398;28;20052;-77
2023/02/20 01:41:56;;;;;;;10.77;7.80;;;;;;;7.75;74.30;100489.41;4990481;28;20141;-77
2023/02/20 01:44:29;;;;;;;12.20;8.05;;;;;;;7.73;74.05;100468.50;4990458;28;20137;-76
2023/02/20 01:46:57;;;;;;;11.43;8.10;;;;;;;7.73;74.52;100470.28;4985716;28;20046;-79
2023/02/20 01:49:38;;;;;;;10.15;7.70;;;;;;;7.72;73.75;100458.91;4992170;28;20121;-77
2023/02/20 01:52:08;;;;;;;12.15;8.40;;;;;;;7.74;74.10;100459.72;4991344;28;20133;-77
2023/02/20 01:54:38;;;;;;;13.15;7.95;;;;;;;7.76;74.33;100449.19;5002916;28;20066;-78
2023/02/20 01:57:11;;;;;;;11.77;8.40;;;;;;;7.77;74.13;100448.25;4992925;28;20082;-78
2023/02/20 01:59:41;;;;;;;13.80;8.05;;;;;;;7.79;74.71;100438.59;4993762;28;20133;-77
2023/02/20 02:02:08;;;;;;;12.15;8.30;;;;;;;7.82;74.68;100414.91;4953713;28;1145733;-77
2023/02/20 02:04:36;;;;;;;12.98;9.30;;;;;;;7.82;74.37;100414.91;4995098;28;20384;-77
2023/02/20 02:07:03;;;;;;;15.32;9.20;;;;;;;7.86;74.81;100420.91;4993901;28;20503;-78
2023/02/20 02:09:39;;;;;;;13.90;9.23;;;;;;;7.87;74.82;100441.81;4993074;28;20136;-77
2023/02/20 02:12:08;;;;;;;17.17;9.40;;;;;;;7.88;74.57;100425.16;4994717;28;20046;-77
2023/02/20 02:14:34;;;;;;;13.60;9.18;;;;;;;7.91;74.56;100411.09;4985362;28;20054;-76
2023/02/20 02:17:15;;;;;;;14.23;8.98;;;;;;;7.88;73.46;100430.41;4992277;28;20046;-77
2023/02/20 02:20:17;;;;;;;13.73;9.32;;;;;;;7.91;73.31;100422.44;4993416;28;20472;-78
2023/02/20 02:22:46;;;;;;;15.55;10.00;;;;;;;7.94;74.07;100414.50;4971513;28;20526;-78
2023/02/20 02:25:47;;;;;;;14.30;9.10;;;;;;;7.94;73.53;100414.50;4993861;28;20053;-77
2023/02/20 02:28:19;;;;;;;14.50;10.00;;;;;;;7.97;73.69;100395.16;4993830;28;20454;-77
2023/02/20 02:31:04;;;;;;;13.20;9.25;;;;;;;7.97;73.49;100397.78;4994495;28;20404;-78
2023/02/20 02:33:57;;;;;;;16.00;10.23;;;;;;;7.94;73.27;100375.16;4992505;28;20509;-78
2023/02/20 02:36:44;;;;;;;16.30;10.68;;;;;;;7.99;73.77;100387.25;4993971;28;20046;-77
2023/02/20 02:39:24;;;;;;;18.05;10.52;;;;;;;7.98;73.51;100375.03;4989852;28;20065;-77
2023/02/20 02:42:07;;;;;;;19.02;11.02;;;;;;;7.93;73.03;100364.72;4987092;28;20072;-79
2023/02/20 02:44:41;;;;;;;20.65;11.73;;;;;;;7.93;73.58;100364.72;4994287;28;20140;-77
2023/02/20 02:47:15;;;;;;;17.15;11.38;;;;;;;7.89;73.42;100350.84;4993572;28;20046;-77
2023/02/20 02:49:58;;;;;;;18.33;11.90;;;;;;;7.90;74.13;100355.22;4993956;28;20061;-76
2023/02/20 02:52:47;;;;;;;17.27;12.05;;;;;;;7.89;74.52;100348.25;4994043;28;20049;-77
2023/02/20 02:55:23;;;;;;;25.08;12.18;;;;;;;7.84;73.30;100342.31;4993754;28;20427;-77
2023/02/20 02:57:50;;;;;;;19.38;11.43;;;;;;;7.87;74.45;100329.09;4984805;28;20510;-79
2023/02/20 03:00:23;;;;;;;21.13;12.15;;;;;;;7.84;74.03;100338.84;4992762;28;20065;-77
2023/02/20 03:03:11;;;;;;;20.55;12.02;;;;;;;7.82;74.13;100329.25;4986421;28;20081;-77
2023/02/20 03:05:56;;;;;;;19.92;11.70;;;;;;;7.80;73.71;100336.34;4993484;28;20104;-78
2023/02/20 03:08:29;;;;;;;18.80;11.45;;;;;;;7.85;74.89;100345.81;4993314;28;20145;-77
2023/02/20 03:11:20;;;;;;;21.38;12.68;;;;;;;7.80;73.84;100332.84;4993790;28;20054;-77
2023/02/20 03:16:56;;;;;;;19.00;12.48;;;;;;;7.79;73.99;100310.19;4992687;28;20513;-78
2023/02/20 03:19:37;;;;;;;20.52;12.20;;;;;;;7.79;74.21;100333.75;4993354;28;20054;-77
2023/02/20 03:22:12;;;;;;;20.42;11.48;;;;;;;7.82;74.47;100344.97;4988363;28;20054;-77
2023/02/20 03:24:53;;;;;;;21.00;12.30;;;;;;;7.85;74.97;100327.44;4992244;28;20406;-76
2023/02/20 03:27:27;;;;;;;19.05;11.57;;;;;;;7.86;74.88;100332.63;4991848;28;20050;-77
2023/02/20 03:29:56;;;;;;;;;;;;;;;7.85;73.42;100317.81;4993727;28;20050;-77
2023/02/20 03:43:35;;;;;;;22.13;11.27;;;;;;;7.97;75.51;100318.28;4993328;28;20050;-77
2023/02/20 03:46:07;;;;;;;18.50;10.85;;;;;;;7.97;74.68;100311.28;4992529;28;20561;-78
2023/02/20 03:48:39;;;;;;;21.15;10.55;;;;;;;8.00;74.82;100310.31;4992383;28;20077;-78
2023/02/20 03:51:12;;;;;;;16.73;8.88;;;;;;;8.03;74.76;100303.16;4993209;28;20053;-77
2023/02/20 03:53:44;;;;;;;18.08;10.63;;;;;;;8.03;74.67;100297.94;4993174;28;20051;-77
2023/02/20 03:56:17;;;;;;;19.88;10.15;;;;;;;8.04;74.51;100304.88;4992509;28;20112;-77
2023/02/20 03:58:50;;;;;;;19.00;10.70;;;;;;;8.05;74.65;100311.84;4984398;28;20148;-78
2023/02/20 04:01:20;;;;;;;17.60;11.57;;;;;;;8.06;74.64;100310.94;4991396;28;20414;-78
2023/02/20 04:03:50;;;;;;;19.00;10.98;;;;;;;8.06;74.90;100316.16;4992898;28;20093;-77
2023/02/20 04:06:21;;;;;;;18.05;10.55;;;;;;;8.06;74.56;100312.69;4992082;28;20042;-77
2023/02/20 04:09:05;;;;;;;18.35;10.80;;;;;;;8.04;73.47;100297.00;4984017;28;20093;-78
2023/02/20 04:11:44;;;;;;;19.75;10.40;;;;;;;8.06;74.77;100296.94;4992736;28;20145;-77
2023/02/20 04:14:14;;;;;;;20.20;10.38;;;;;;;8.04;73.91;100294.38;4992571;28;20113;-77
2023/02/20 04:16:48;;;;;;;18.98;10.60;;;;;;;8.04;74.11;100277.81;4991600;28;20054;-77
2023/02/20 04:19:14;;;;;;;19.67;11.38;;;;;;;8.06;74.76;100281.22;5004676;28;20414;-78
2023/02/20 04:21:47;;;;;;;16.95;11.10;;;;;;;8.01;74.43;100267.44;4992090;28;20050;-78
2023/02/20 04:24:34;;;;;;;17.67;11.02;;;;;;;8.01;74.28;100264.81;4992406;28;20065;-78
2023/02/20 04:27:02;;;;;;;23.13;12.05;;;;;;;8.02;74.89;100259.53;4991540;28;20053;-77
2023/02/20 04:29:29;;;;;;;19.80;11.43;;;;;;;8.03;74.77;100255.13;4990224;28;20046;-78
2023/02/20 04:31:55;;;;;;;18.33;11.95;;;;;;;8.02;74.75;100261.28;4992096;28;20419;-77
2023/02/20 04:34:22;;;;;;;24.65;13.38;;;;;;;8.01;74.75;100251.72;4992053;28;20060;-77
2023/02/20 04:36:52;;;;;;;16.45;11.27;;;;;;;7.99;74.75;100249.13;4991302;28;20081;-78
2023/02/20 04:39:21;;;;;;;19.55;11.63;;;;;;;7.98;74.80;100257.94;4992333;28;20054;-77
2023/02/20 04:41:47;;;;;;;15.75;11.27;;;;;;;7.99;75.05;100258.78;4991854;28;20054;-77
2023/02/20 04:44:32;;;;;;;22.27;12.75;;;;;;;7.99;75.02;100241.28;4992048;28;20076;-78
2023/02/20 04:47:06;;;;;;;21.33;12.02;;;;;;;7.97;74.43;100237.00;4990819;28;20054;-79
2023/02/20 04:49:33;;;;;;;23.40;11.68;;;;;;;7.97;75.08;100239.63;4992154;28;20061;-77
2023/02/20 04:51:59;;;;;;;23.98;13.38;;;;;;;7.96;74.82;100233.53;4991749;28;20161;-78
2023/02/20 04:54:26;;;;;;;23.95;12.35;;;;;;;7.95;75.22;100237.94;4991729;28;20418;-77
2023/02/20 04:56:53;;;;;;;25.10;12.63;;;;;;;7.95;75.55;100248.41;4990808;28;20054;-77
2023/02/20 04:59:19;;;;;;;24.63;14.15;;;;;;;7.93;75.17;100238.91;4988364;28;20132;-78
2023/02/20 05:01:50;;;;;;;23.00;13.65;;;;;;;7.93;75.34;100246.75;4991452;28;20054;-78
2023/02/20 05:04:19;;;;;;;20.27;13.50;;;;;;;7.92;75.33;100248.53;5037841;23;20041;-80
2023/02/20 05:06:49;;;;;;;24.35;14.50;;;;;;;7.92;75.25;100245.91;5009645;28;20046;-77
2023/02/20 05:09:15;;;;;;;22.77;14.65;;;;;;;7.93;75.39;100231.88;5010938;28;20461;-79
2023/02/20 05:11:42;;;;;;;23.17;14.60;;;;;;;7.95;75.41;100247.53;5010819;28;20042;-79
2023/02/20 05:14:09;;;;;;;23.88;15.07;;;;;;;7.94;75.40;100230.97;5010630;28;20057;-79
2023/02/20 05:16:37;;;;;;;24.17;15.93;;;;;;;7.94;75.41;100249.34;5009901;28;20124;-79
2023/02/20 05:19:03;;;;;;;22.98;15.38;;;;;;;7.95;75.46;100248.41;5010925;28;20045;-79
2023/02/20 05:24:15;;;;;;;30.30;17.58;;;;;;;7.95;75.40;100248.41;5010675;28;20058;-79
2023/02/20 05:26:42;;;;;;;25.10;16.65;;;;;;;7.95;75.58;100235.31;5009884;28;20054;-77
2023/02/20 05:29:11;;;;;;;23.08;16.10;;;;;;;7.94;75.66;100249.34;5010428;28;20483;-79
2023/02/20 05:31:39;;;;;;;32.78;18.85;;;;;;;7.91;75.08;100238.97;5010708;28;20053;-79
2023/02/20 05:34:06;;;;;;;31.58;18.23;;;;;;;7.91;75.12;100228.47;5010642;28;20053;-79
2023/02/20 05:36:33;;;;;;;30.38;19.05;;;;;;;7.88;75.26;100228.59;5009813;28;20058;-79
2023/02/20 05:39:00;;;;;;;28.25;19.02;;;;;;;7.87;75.32;100228.63;5010660;28;20265;-79
2023/02/20 05:41:27;;;;;;;27.88;19.00;;;;;;;7.84;75.59;100219.13;5010464;28;20107;-79
2023/02/20 05:43:57;;;;;;;28.13;18.17;;;;;;;7.84;75.57;100227.00;5010289;28;20049;-79
2023/02/20 05:46:25;;;;;;;29.40;19.50;;;;;;;7.81;75.48;100224.47;5010022;28;20058;-79
2023/02/20 05:48:52;;;;;;;31.83;20.02;;;;;;;7.81;76.06;100237.56;5010026;28;20495;-79
2023/02/20 05:51:27;;;;;;;31.15;19.40;;;;;;;7.80;75.46;100228.00;5010397;28;20058;-79
2023/02/20 05:53:54;;;;;;;31.80;20.45;;;;;;;7.83;75.91;100238.41;5010630;28;20093;-79
2023/02/20 05:56:21;;;;;;;32.25;19.02;;;;;;;7.85;76.07;100248.81;5009818;28;20053;-79
2023/02/20 05:58:48;;;;;;;30.98;19.90;;;;;;;7.86;76.23;100245.28;5010119;28;20410;-79
2023/02/20 06:01:25;;;;;;;30.40;19.55;;;;;;;7.82;75.42;100255.03;5010334;28;20042;-79
2023/02/20 06:03:52;;;;;;;37.00;20.25;;;;;;;7.87;76.22;100237.38;5010327;28;20081;-79
2023/02/20 06:06:19;;;;;;;32.53;19.55;;;;;;;7.90;76.16;100244.25;5009842;28;20085;-79
2023/02/20 06:08:47;;;;;;;30.15;20.38;;;;;;;7.91;76.24;100241.56;5009798;28;20049;-79
2023/02/20 06:11:14;;;;;;;29.00;19.80;;;;;;;7.93;76.30;100228.41;5010188;28;20089;-79
2023/02/20 06:13:42;;;;;;;32.70;21.45;;;;;;;7.93;76.10;100223.19;5010059;28;20422;-80
2023/02/20 06:16:09;;;;;;;34.42;22.85;;;;;;;7.93;76.13;100229.25;5010047;28;20061;-79
2023/02/20 06:18:42;;;;;;;33.05;22.00;;;;;;;7.92;76.02;100229.31;5009878;28;20077;-79
2023/02/20 06:21:10;;;;;;;36.60;21.83;;;;;;;7.92;75.80;100224.94;5010057;28;20076;-79
2023/02/20 06:23:44;;;;;;;39.28;23.20;;;;;;;7.97;76.08;100216.03;5010135;28;20102;-79
2023/02/20 06:26:14;;;;;;;37.60;22.40;;;;;;;7.99;76.42;100227.34;5009780;28;20445;-78
2023/02/20 06:28:41;;;;;;;39.85;25.65;;;;;;;7.97;75.94;100214.28;5001162;28;20058;-78
2023/02/20 06:31:08;;;;;;;38.38;23.08;;;;;;;8.00;76.37;100208.06;5009927;28;20116;-77
2023/02/20 06:33:35;;;;;;;42.30;24.90;;;;;;;7.99;76.25;100222.94;5013655;28;20053;-78
2023/02/20 06:36:03;;;;;;;45.13;25.95;;;;;;;7.99;76.69;100228.16;5012784;28;20054;-78
2023/02/20 06:38:30;;;;;;;40.80;23.60;;;;;;;8.02;76.38;100206.22;5011709;28;20050;-78
2023/02/20 06:40:56;;;;;;;39.80;24.67;;;;;;;8.04;76.39;100205.25;5013576;28;20482;-78
2023/02/20 06:43:23;;;;;;;43.90;25.42;;;;;;;8.04;76.14;100212.28;5013484;28;20069;-78
2023/02/20 06:45:49;;;;;;;40.65;24.60;;;;;;;8.05;76.50;100204.34;5012961;28;20112;-78
2023/02/20 06:48:17;;;;;;;39.38;24.85;;;;;;;8.06;76.28;100197.31;5012665;28;20046;-78
2023/02/20 06:50:43;;;;;;;45.67;26.60;;;;;;;8.06;76.27;100205.19;5013003;28;20049;-77
2023/02/20 06:53:09;;;;;;;39.47;25.40;;;;;;;8.08;76.53;100200.75;5013017;28;20053;-78
2023/02/20 06:55:36;;;;;;;45.08;26.42;;;;;;;8.11;76.34;100211.09;5012710;28;20166;-78
2023/02/20 06:58:03;;;;;;;41.03;26.75;;;;;;;8.11;76.34;100221.59;5012525;28;20049;-79
2023/02/20 07:00:29;;;;;;;47.50;29.35;;;;;;;8.12;76.61;100225.94;5012916;28;20053;-79
2023/02/20 07:02:56;;;;;;;46.47;28.10;;;;;;;8.13;76.55;100211.91;5012988;28;20054;-79
2023/02/20 07:05:23;;;;;;;44.63;27.45;;;;;;;8.16;76.69;100234.53;5012361;28;20093;-78
2023/02/20 07:07:49;;;;;;;38.55;26.50;;;;;;;8.18;76.73;100209.94;5012344;28;20487;-79
2023/02/20 07:10:16;;;;;;;47.28;29.73;;;;;;;8.20;76.46;100204.66;5012834;28;20097;-79
2023/02/20 07:12:42;;;;;;;46.08;28.50;;;;;;;8.23;76.56;100217.66;5012706;28;20045;-79
2023/02/20 07:15:10;;;;;;;45.05;28.10;;;;;;;8.26;76.53;100220.13;5012317;28;20058;-78
2023/02/20 07:17:37;;;;;;;46.70;28.17;;;;;;;8.28;76.66;100236.66;5003343;28;20060;-79
2023/02/20 07:20:04;;;;;;;47.45;30.58;;;;;;;8.30;76.50;100224.34;5013095;28;20411;-79
2023/02/20 07:22:31;;;;;;;52.67;31.27;;;;;;;8.30;76.29;100229.59;5012909;28;20465;-79
2023/02/20 07:24:57;;;;;;;47.03;29.60;;;;;;;8.34;76.54;100230.34;5012624;28;20096;-79
2023/02/20 07:27:24;;;;;;;45.10;28.73;;;;;;;8.36;76.50;100220.63;5012550;28;20054;-79
2023/02/20 07:29:50;;;;;;;46.28;30.02;;;;;;;8.37;76.28;100231.97;5012537;28;20050;-78
2023/02/20 07:36:04;;;;;;;49.47;31.02;;;;;;;8.38;75.57;100224.06;5013590;28;20103;-79
2023/02/20 07:38:58;;;;;;;;;;;;;;;8.42;74.55;100230.00;5013843;28;20058;-79
2023/02/20 07:41:34;;;;;;;47.50;30.02;;;;;;;8.45;76.08;100235.97;5012051;28;20366;-79
2023/02/20 07:44:02;;;;;;;53.05;31.15;;;;;;;8.45;76.21;100215.00;5005650;28;20088;-79
2023/02/20 07:46:32;;;;;;;46.78;28.75;;;;;;;8.47;76.09;100222.81;5011868;28;20046;-78
2023/02/20 07:49:01;;;;;;;51.42;30.75;;;;;;;8.48;76.03;100229.75;5012068;28;20054;-79
2023/02/20 07:51:28;;;;;;;45.40;30.08;;;;;;;8.49;76.02;100226.25;5012079;28;20053;-79
2023/02/20 07:53:55;;;;;;;47.13;29.48;;;;;;;8.51;75.96;100234.03;5012115;28;20050;-78
2023/02/20 07:56:22;;;;;;;45.10;30.13;;;;;;;8.52;76.19;100212.13;5011742;28;20404;-79
2023/02/20 07:58:49;;;;;;;51.20;31.60;;;;;;;8.53;76.16;100211.25;5011591;28;20057;-79
2023/02/20 08:01:16;;;;;;;46.35;30.02;;;;;;;8.54;76.10;100234.81;5011891;28;20050;-79
2023/02/20 08:03:43;;;;;;;51.45;31.13;;;;;;;8.57;76.25;100203.16;5011906;28;20054;-79
2023/02/20 08:06:10;;;;;;;46.10;28.80;;;;;;;8.59;76.13;100205.72;5006957;28;20087;-79
2023/02/20 08:08:37;;;;;;;46.88;30.70;;;;;;;8.62;76.44;100210.00;5011670;28;20109;-79
2023/02/20 08:11:05;;;;;;;49.25;29.95;;;;;;;8.62;76.27;100213.47;5011645;28;20107;-79
2023/02/20 08:13:36;;;;;;;45.15;30.02;;;;;;;8.66;76.17;100201.06;5011719;28;20054;-79
2023/02/20 08:16:02;;;;;;;49.67;31.30;;;;;;;8.65;75.96;100213.38;5011057;28;20502;-79
2023/02/20 08:18:29;;;;;;;46.05;29.15;;;;;;;8.68;75.85;100210.59;5011214;28;20490;-79
2023/02/20 08:20:56;;;;;;;47.58;27.60;;;;;;;8.71;75.92;100209.63;5011423;28;20092;-78
2023/02/20 08:23:23;;;;;;;49.80;27.52;;;;;;;8.72;76.04;100230.53;5008639;28;20100;-78
2023/02/20 08:25:50;;;;;;;48.10;29.33;;;;;;;8.76;76.09;100218.16;5011223;28;20045;-78
2023/02/20 08:28:18;;;;;;;44.85;26.60;;;;;;;8.77;76.01;100183.13;5011121;28;20100;-78
2023/02/20 08:30:45;;;;;;;46.28;26.55;;;;;;;8.78;76.47;100189.22;5011362;28;20482;-79
2023/02/20 08:33:12;;;;;;;42.03;27.27;;;;;;;8.78;76.48;100200.56;5011681;28;20084;-79
2023/02/20 08:35:38;;;;;;;47.30;28.02;;;;;;;8.79;76.21;100211.94;5002213;28;20054;-79
2023/02/20 08:38:07;;;;;;;45.03;28.88;;;;;;;8.81;76.52;100199.56;5010996;28;20104;-79
2023/02/20 08:40:34;;;;;;;45.35;26.65;;;;;;;8.85;76.24;100185.41;5011177;28;20193;-79
2023/02/20 08:43:00;;;;;;;43.42;27.70;;;;;;;8.86;76.85;100187.13;5011416;28;20124;-79
2023/02/20 08:45:27;;;;;;;53.20;26.40;;;;;;;8.88;76.42;100200.16;5010947;28;20053;-79
2023/02/20 08:48:00;;;;;;;49.65;26.60;;;;;;;8.85;75.99;100209.03;5010937;28;20068;-78
2023/02/20 08:50:27;;;;;;;40.70;25.92;;;;;;;8.89;76.51;100192.22;5011089;28;20042;-79
2023/02/20 08:52:53;;;;;;;39.90;26.08;;;;;;;8.91;76.46;100200.91;5011077;28;20486;-79
2023/02/20 08:55:20;;;;;;;41.63;26.45;;;;;;;8.93;76.54;100200.84;5010526;28;20057;-79
2023/02/20 08:57:46;;;;;;;38.08;25.05;;;;;;;8.95;76.41;100184.09;5010924;28;20121;-78
2023/02/20 09:00:15;;;;;;;39.13;25.02;;;;;;;8.98;76.27;100175.25;5010937;28;20112;-79
2023/02/20 09:02:41;;;;;;;46.13;25.55;;;;;;;8.99;76.73;100188.31;5002392;28;20466;-78
2023/02/20 09:05:09;;;;;;;44.13;25.70;;;;;;;9.02;76.55;100184.69;5010636;28;20093;-79
2023/02/20 09:07:35;;;;;;;41.28;24.60;;;;;;;9.05;76.71;100183.69;5010052;28;20049;-79
2023/02/20 09:10:03;;;;;;;36.45;24.08;;;;;;;9.06;76.96;100193.28;5005040;28;20506;-79
2023/02/20 09:12:31;;;;;;;36.97;24.67;;;;;;;9.08;76.81;100170.44;5009470;28;20089;-79
2023/02/20 09:15:01;;;;;;;40.65;25.30;;;;;;;9.09;76.76;100187.91;5006404;28;20529;-79
2023/02/20 09:17:28;;;;;;;39.63;24.90;;;;;;;9.10;76.74;100169.44;5010356;28;20053;-79
2023/02/20 09:19:55;;;;;;;51.08;25.95;;;;;;;9.13;76.84;100173.72;5003472;28;20046;-79
2023/02/20 09:22:25;;;;;;;43.67;24.33;;;;;;;9.14;76.45;100183.28;5006582;28;20050;-79
2023/02/20 09:24:53;;;;;;;42.58;24.05;;;;;;;9.16;76.64;100181.44;5004051;28;20046;-78
2023/02/20 09:27:20;;;;;;;41.45;26.55;;;;;;;9.17;76.49;100185.78;5006687;28;20077;-79
2023/02/20 09:29:46;;;;;;;37.92;25.40;;;;;;;9.21;76.62;100182.09;5004667;28;20053;-78
2023/02/20 09:32:13;;;;;;;40.10;23.50;;;;;;;9.24;76.90;100175.88;5006647;28;20079;-78
2023/02/20 09:34:40;;;;;;;39.17;23.85;;;;;;;9.25;76.57;100180.19;5010632;28;20065;-79
2023/02/20 09:37:07;;;;;;;38.88;23.55;;;;;;;9.26;76.70;100202.91;5009923;28;20507;-78
2023/02/20 09:39:34;;;;;;;39.45;23.98;;;;;;;9.29;76.81;100188.78;5010408;28;20057;-78
2023/02/20 09:42:03;;;;;;;35.63;23.60;;;;;;;9.30;76.70;100201.00;5010286;28;20095;-79
2023/02/20 09:44:57;;;;;;;38.75;23.50;;;;;;;9.31;75.90;100192.19;5010479;28;20533;-79
2023/02/20 09:47:41;;;;;;;33.53;21.58;;;;;;;9.37;76.29;100191.91;5010144;28;20041;-79
2023/02/20 09:50:21;;;;;;;34.50;22.17;;;;;;;9.38;76.22;100193.59;5010557;28;20058;-79
2023/02/20 09:53:00;;;;;;;34.17;21.73;;;;;;;9.43;75.99;100198.69;5010345;28;20483;-78
2023/02/20 09:55:34;;;;;;;37.85;22.52;;;;;;;9.48;76.55;100204.56;5009967;28;20046;-79
2023/02/20 09:58:03;;;;;;;35.67;22.27;;;;;;;9.53;76.43;100189.44;5009903;28;20510;-78
2023/02/20 10:00:35;;;;;;;33.72;22.27;;;;;;;9.54;76.27;100191.16;5010308;28;20100;-79
2023/02/20 10:03:12;;;;;;;37.63;21.63;;;;;;;9.56;76.30;100202.44;5010434;28;20053;-78
2023/02/20 10:05:41;;;;;;;37.83;21.60;;;;;;;9.61;76.83;100192.56;5009977;28;20490;-79
2023/02/20 10:08:09;;;;;;;33.90;21.17;;;;;;;9.64;76.68;100205.59;5013086;28;20045;-78
2023/02/20 10:10:37;;;;;;;34.25;20.77;;;;;;;9.69;76.68;100209.78;5014114;28;20057;-79
2023/02/20 10:13:35;;;;;;;35.33;21.42;;;;;;;9.68;75.91;100201.03;5011040;28;20069;-79
2023/02/20 10:16:27;;;;;;;33.85;20.48;;;;;;;9.72;75.95;100207.84;5001316;28;20101;-79
2023/02/20 10:19:00;;;;;;;36.13;22.13;;;;;;;9.80;76.26;100231.19;4988193;28;20481;-79
2023/02/20 10:21:32;;;;;;;36.55;21.60;;;;;;;9.78;75.84;100227.75;5015150;28;20054;-79
2023/02/20 10:24:22;;;;;;;32.13;19.77;;;;;;;9.81;75.24;100216.22;5031351;28;20107;-79
2023/02/20 10:26:56;;;;;;;33.60;20.05;;;;;;;9.86;76.15;100219.50;4995058;28;20061;-79
2023/02/20 10:29:26;;;;;;;34.00;20.83;;;;;;;9.87;76.09;100226.47;5013771;28;20450;-78
2023/02/20 10:32:01;;;;;;;34.25;19.73;;;;;;;9.88;75.89;100228.19;5014019;28;20109;-79
2023/02/20 10:34:33;;;;;;;33.95;20.52;;;;;;;9.90;76.21;100215.81;5013595;28;20730;-79
2023/02/20 10:37:10;;;;;;;31.98;19.90;;;;;;;9.90;75.87;100216.66;5013085;28;20112;-79
2023/02/20 10:39:47;;;;;;;31.70;20.60;;;;;;;9.91;76.13;100207.84;5005859;28;20120;-78
2023/02/20 10:42:27;;;;;;;31.02;21.52;;;;;;;9.91;75.68;100193.84;5009650;28;20089;-79
2023/02/20 10:45:26;;;;;;;38.25;21.77;;;;;;;9.86;75.18;100201.94;5013459;28;20096;-79
2023/02/20 10:48:06;;;;;;;36.35;21.10;;;;;;;9.87;75.71;100202.81;5007376;28;20133;-78
2023/02/20 10:51:02;;;;;;;37.90;21.75;;;;;;;9.85;74.89;100208.16;5013647;28;20060;-78
2023/02/20 10:53:35;;;;;;;35.28;20.67;;;;;;;9.88;75.88;100176.44;5013478;28;20053;-79
2023/02/20 10:56:25;;;;;;;34.60;21.33;;;;;;;9.89;75.76;100166.78;5012916;28;20050;-79
2023/02/20 10:59:18;;;;;;;32.55;20.98;;;;;;;9.90;76.00;100189.50;5007262;28;20054;-79
2023/02/20 11:01:50;;;;;;;31.15;20.13;;;;;;;9.95;76.38;100203.31;5006269;28;20541;-79
2023/02/20 11:04:27;;;;;;;33.17;20.02;;;;;;;9.96;75.83;100205.00;5056337;23;20057;-79
2023/02/20 11:07:12;;;;;;;33.72;21.88;;;;;;;9.97;75.36;100196.19;4991119;28;20085;-80
2023/02/20 11:09:40;;;;;;;39.40;22.17;;;;;;;10.00;76.25;100200.44;4993675;28;20077;-80
2023/02/20 11:12:10;;;;;;;36.78;20.48;;;;;;;9.99;76.61;100173.28;4993669;28;20042;-80
2023/02/20 11:14:49;;;;;;;33.95;21.58;;;;;;;9.96;75.78;100173.44;4993385;28;20082;-79
2023/02/20 11:17:18;;;;;;;44.95;21.88;;;;;;;9.99;76.23;100175.91;4993355;28;20046;-80
2023/02/20 11:19:46;;;;;;;34.53;21.25;;;;;;;10.00;76.67;100163.63;4992238;28;20050;-80
2023/02/20 11:22:13;;;;;;;35.67;20.67;;;;;;;9.99;76.69;100177.72;4993572;28;20050;-80
2023/02/20 11:24:45;;;;;;;37.72;18.90;;;;;;;10.01;76.86;100184.59;4993308;28;20050;-80
2023/02/20 11:27:24;;;;;;;39.42;22.30;;;;;;;10.00;76.16;100182.03;4992876;28;20058;-80
2023/02/20 11:30:03;;;;;;;34.10;20.35;;;;;;;10.00;75.94;100166.25;4993448;28;20522;-80
2023/02/20 11:32:36;;;;;;;39.15;21.45;;;;;;;10.04;76.47;100168.69;4993713;28;20081;-79
2023/02/20 11:35:16;;;;;;;36.97;20.58;;;;;;;10.03;75.69;100164.31;4993074;28;20054;-80
2023/02/20 11:37:51;;;;;;;32.90;20.00;;;;;;;10.07;75.93;100143.13;4991718;28;20054;-80
2023/02/20 11:40:30;;;;;;;38.35;21.35;;;;;;;10.05;75.71;100148.47;4993206;28;20244;-80
2023/02/20 11:43:17;;;;;;;33.35;19.48;;;;;;;10.05;76.05;100153.72;4993000;28;20058;-80
2023/02/20 11:45:44;;;;;;;30.80;20.27;;;;;;;10.10;76.74;100158.78;4992876;28;20410;-80
2023/02/20 11:48:12;;;;;;;33.70;21.83;;;;;;;10.10;76.80;100158.78;4992736;28;20104;-80
2023/02/20 11:50:43;;;;;;;36.58;21.95;;;;;;;10.07;76.52;100151.03;4992979;28;20061;-79
2023/02/20 11:53:23;;;;;;;34.20;20.42;;;;;;;10.07;76.33;100138.75;4992983;28;20088;-80
2023/02/20 11:56:06;;;;;;;28.48;19.30;;;;;;;10.07;76.03;100154.53;4992678;28;20050;-80
2023/02/20 11:58:34;;;;;;;27.02;18.27;;;;;;;10.14;76.83;100140.13;4992585;28;20054;-80